| time (UTC) | temp C | wind direction | speed KPH | gust KPH | rain 1hr cm | rain 24hr cm | rain mn cm | humidity % | barometer mb |
| 20260510192800 | 22 | 303 | 1.6 | 3.2 | 0.00 | 0.00 | 0.00 | 62 | 1010.8 |
| 20260510192255 | 22 | 79 | 3.2 | 4.8 | 0.00 | 0.00 | 0.00 | 60 | 1010.8 |
| 20260510191751 | 22 | 290 | 1.6 | 3.2 | 0.00 | 0.00 | 0.00 | 63 | 1010.8 |
| 20260510191247 | 22 | 266 | 0.0 | 0.0 | 0.00 | 0.00 | 0.00 | 66 | 1010.8 |
| 20260510190746 | 21 | 271 | 0.0 | 0.0 | 0.00 | 0.00 | 0.00 | 68 | 1010.8 |
| 20260510190242 | 20 | 278 | 0.0 | 0.0 | 0.00 | 0.00 | 0.00 | 71 | 1010.7 |
| 20260510185739 | 20 | 289 | 1.6 | 1.6 | 0.00 | 0.00 | 0.00 | 72 | 1010.8 |
| 20260510185237 | 20 | 288 | 0.0 | 0.0 | 0.00 | 0.00 | 0.00 | 74 | 1010.9 |
| 20260510184733 | 20 | 294 | 0.0 | 0.0 | 0.00 | 0.00 | 0.00 | 76 | 1011.0 |
| 20260510184230 | 20 | 272 | 0.0 | 0.0 | 0.00 | 0.00 | 0.00 | 74 | 1011.1 |
| 20260510183725 | 20 | 285 | 0.0 | 0.0 | 0.00 | 0.00 | 0.00 | 75 | 1011.0 |
| 20260510183220 | 20 | 273 | 1.6 | 3.2 | 0.00 | 0.00 | 0.00 | 72 | 1011.0 |
| 20260510182717 | 20 | 260 | 0.0 | 1.6 | 0.00 | 0.00 | 0.00 | 71 | 1010.8 |
| 20260510182213 | 20 | 244 | 1.6 | 1.6 | 0.00 | 0.00 | 0.00 | 70 | 1010.8 |
| 20260510181710 | 21 | 266 | 1.6 | 1.6 | 0.00 | 0.00 | 0.00 | 65 | 1010.8 |
| 20260510181207 | 21 | 234 | 1.6 | 1.6 | 0.00 | 0.00 | 0.00 | 64 | 1010.8 |
| 20260510180702 | 22 | 289 | 0.0 | 1.6 | 0.00 | 0.00 | 0.00 | 60 | 1010.6 |
| 20260510180200 | 22 | 275 | 1.6 | 1.6 | 0.00 | 0.00 | 0.00 | 60 | 1010.8 |
| 20260510175656 | 22 | 266 | 0.0 | 1.6 | 0.00 | 0.00 | 0.00 | 58 | 1010.7 |
| 20260510175152 | 21 | 279 | 0.0 | 0.0 | 0.00 | 0.00 | 0.00 | 61 | 1010.7 |
| 20260510174649 | 22 | 298 | 1.6 | 3.2 | 0.00 | 0.00 | 0.00 | 60 | 1010.9 |
| 20260510174147 | 22 | 281 | 0.0 | 1.6 | 0.00 | 0.00 | 0.00 | 61 | 1010.8 |
| 20260510173643 | 22 | 282 | 0.0 | 0.0 | 0.00 | 0.00 | 0.00 | 60 | 1010.7 |
| 20260510173139 | 22 | 265 | 0.0 | 1.6 | 0.00 | 0.00 | 0.00 | 57 | 1010.6 |
| 20260510172634 | 22 | 262 | 1.6 | 1.6 | 0.00 | 0.00 | 0.00 | 57 | 1010.7 |
| 20260510172131 | 22 | 209 | 4.8 | 6.4 | 0.00 | 0.00 | 0.00 | 56 | 1010.7 |
| 20260510171628 | 23 | 184 | 1.6 | 4.8 | 0.00 | 0.00 | 0.00 | 58 | 1010.7 |
| 20260510171126 | 22 | 297 | 4.8 | 4.8 | 0.00 | 0.00 | 0.00 | 56 | 1010.8 |
| 20260510170622 | 22 | 306 | 0.0 | 0.0 | 0.00 | 0.00 | 0.00 | 56 | 1010.8 |
| 20260510170118 | 22 | 338 | 1.6 | 1.6 | 0.00 | 0.00 | 0.00 | 58 | 1011.0 |
| 20260510165614 | 22 | 108 | 1.6 | 1.6 | 0.00 | 0.00 | 0.00 | 58 | 1011.0 |
| 20260510165110 | 22 | 269 | 4.8 | 9.7 | 0.00 | 0.00 | 0.00 | 57 | 1011.2 |
| 20260510164608 | 22 | 296 | 3.2 | 3.2 | 0.00 | 0.00 | 0.00 | 58 | 1010.9 |
| 20260510164104 | 22 | 280 | 1.6 | 3.2 | 0.00 | 0.00 | 0.00 | 57 | 1010.9 |
| 20260510163554 | 21 | 271 | 0.0 | 1.6 | 0.00 | 0.00 | 0.00 | 61 | 1010.9 |
| 20260510163050 | 21 | 270 | 1.6 | 3.2 | 0.00 | 0.00 | 0.00 | 61 | 1010.8 |
| 20260510162545 | 21 | 231 | 1.6 | 1.6 | 0.00 | 0.00 | 0.00 | 61 | 1011.0 |
| 20260510162042 | 21 | 224 | 1.6 | 3.2 | 0.00 | 0.00 | 0.00 | 61 | 1011.1 |
| 20260510161537 | 21 | 281 | 1.6 | 1.6 | 0.00 | 0.00 | 0.00 | 61 | 1011.1 |
| 20260510161034 | 22 | 133 | 0.0 | 1.6 | 0.00 | 0.00 | 0.00 | 60 | 1011.1 |
| 20260510160526 | 22 | 231 | 3.2 | 3.2 | 0.00 | 0.00 | 0.00 | 59 | 1011.1 |
| 20260510160026 | 21 | 289 | 0.0 | 0.0 | 0.00 | 0.00 | 0.00 | 62 | 1011.1 |
| 20260510155522 | 21 | 260 | 3.2 | 4.8 | 0.00 | 0.00 | 0.00 | 63 | 1011.3 |
| 20260510155019 | 21 | 243 | 3.2 | 3.2 | 0.00 | 0.00 | 0.00 | 63 | 1011.3 |
| 20260510154515 | 20 | 274 | 0.0 | 0.0 | 0.00 | 0.00 | 0.00 | 66 | 1011.3 |
| 20260510154014 | 20 | 234 | 1.6 | 1.6 | 0.00 | 0.00 | 0.00 | 66 | 1011.3 |
| 20260510153510 | 20 | 279 | 3.2 | 4.8 | 0.00 | 0.00 | 0.00 | 70 | 1011.3 |
| 20260510153007 | 20 | 325 | 0.0 | 0.0 | 0.00 | 0.00 | 0.00 | 69 | 1011.2 |
| 20260510152504 | 21 | 284 | 3.2 | 3.2 | 0.00 | 0.00 | 0.00 | 68 | 1011.0 |
| 20260510152000 | 20 | 187 | 3.2 | 3.2 | 0.00 | 0.00 | 0.00 | 67 | 1011.0 |
| 20260510151457 | 20 | 328 | 3.2 | 3.2 | 0.00 | 0.00 | 0.00 | 69 | 1011.0 |
| 20260510150954 | 20 | 264 | 1.6 | 1.6 | 0.00 | 0.00 | 0.00 | 68 | 1011.1 |
| 20260510150449 | 20 | 294 | 1.6 | 1.6 | 0.00 | 0.00 | 0.00 | 69 | 1011.2 |
| 20260510145945 | 19 | 303 | 3.2 | 3.2 | 0.00 | 0.00 | 0.00 | 71 | 1011.0 |
| 20260510145442 | 18 | 305 | 1.6 | 1.6 | 0.00 | 0.00 | 0.00 | 76 | 1011.0 |
| 20260510144939 | 19 | 257 | 1.6 | 1.6 | 0.00 | 0.00 | 0.00 | 75 | 1011.0 |
| 20260510144436 | 18 | 72 | 3.2 | 3.2 | 0.00 | 0.00 | 0.00 | 75 | 1011.1 |
| 20260510143931 | 18 | 13 | 1.6 | 3.2 | 0.00 | 0.00 | 0.00 | 76 | 1011.1 |
| 20260510143427 | 18 | 286 | 0.0 | 0.0 | 0.00 | 0.00 | 0.00 | 76 | 1011.1 |
| 20260510142924 | 17 | 296 | 1.6 | 1.6 | 0.00 | 0.00 | 0.00 | 80 | 1011.2 |
| 20260510142421 | 17 | 314 | 0.0 | 1.6 | 0.00 | 0.00 | 0.00 | 80 | 1011.1 |
| 20260510141917 | 17 | 77 | 1.6 | 3.2 | 0.00 | 0.00 | 0.00 | 81 | 1011.1 |
| 20260510141414 | 16 | 0 | 1.6 | 1.6 | 0.00 | 0.00 | 0.00 | 83 | 1011.1 |
| 20260510140912 | 16 | 5 | 3.2 | 3.2 | 0.00 | 0.00 | 0.00 | 83 | 1011.2 |
| 20260510140408 | 16 | 312 | 0.0 | 1.6 | 0.00 | 0.00 | 0.00 | 84 | 1011.1 |
| 20260510135907 | 16 | 33 | 1.6 | 3.2 | 0.00 | 0.00 | 0.00 | 85 | 1011.1 |
| 20260510135403 | 16 | 1 | 1.6 | 1.6 | 0.00 | 0.00 | 0.00 | 83 | 1011.2 |
| 20260510134900 | 16 | 306 | 0.0 | 0.0 | 0.00 | 0.00 | 0.00 | 86 | 1011.4 |
| 20260510134357 | 15 | 340 | 0.0 | 0.0 | 0.00 | 0.00 | 0.00 | 88 | 1011.3 |
| 20260510133853 | 15 | 28 | 1.6 | 1.6 | 0.00 | 0.00 | 0.00 | 86 | 1011.2 |
| 20260510133349 | 15 | 290 | 1.6 | 3.2 | 0.00 | 0.00 | 0.00 | 87 | 1011.5 |
| 20260510132845 | 15 | 300 | 0.0 | 0.0 | 0.00 | 0.00 | 0.00 | 87 | 1011.4 |
| 20260510132343 | 15 | 339 | 0.0 | 1.6 | 0.00 | 0.00 | 0.00 | 88 | 1011.5 |
| 20260510131840 | 15 | 13 | 1.6 | 3.2 | 0.00 | 0.00 | 0.00 | 88 | 1011.3 |
| 20260510131338 | 14 | 300 | 1.6 | 1.6 | 0.00 | 0.00 | 0.00 | 93 | 1011.3 |
| 20260510130834 | 13 | 284 | 0.0 | 0.0 | 0.00 | 0.00 | 0.00 | 97 | 1011.3 |
| 20260510130331 | 13 | 280 | 0.0 | 1.6 | 0.00 | 0.00 | 0.00 | 99 | 1011.4 |
| 20260510125827 | 12 | 216 | 1.6 | 1.6 | 0.00 | 0.00 | 0.00 | 99 | 1011.3 |
| 20260510125324 | 12 | 289 | 0.0 | 0.0 | 0.00 | 0.00 | 0.00 | 99 | 1011.4 |
| 20260510124820 | 12 | 300 | 0.0 | 0.0 | 0.00 | 0.00 | 0.00 | 99 | 1011.5 |
| 20260510124318 | 12 | 300 | 0.0 | 0.0 | 0.00 | 0.00 | 0.00 | 99 | 1011.3 |
| 20260510123813 | 12 | 300 | 0.0 | 0.0 | 0.00 | 0.00 | 0.00 | 99 | 1011.3 |
| 20260510123309 | 12 | 300 | 0.0 | 0.0 | 0.00 | 0.00 | 0.00 | 99 | 1011.2 |
| 20260510122805 | 12 | 300 | 0.0 | 0.0 | 0.00 | 0.00 | 0.00 | 99 | 1011.0 |
| 20260510122301 | 12 | 300 | 0.0 | 0.0 | 0.00 | 0.00 | 0.00 | 99 | 1010.9 |
| 20260510121758 | 12 | 300 | 0.0 | 0.0 | 0.00 | 0.00 | 0.00 | 99 | 1011.0 |
| 20260510121256 | 12 | 302 | 0.0 | 0.0 | 0.00 | 0.00 | 0.00 | 99 | 1010.9 |
| 20260510120753 | 11 | 302 | 0.0 | 0.0 | 0.00 | 0.00 | 0.00 | 99 | 1010.7 |
| 20260510120249 | 11 | 302 | 0.0 | 0.0 | 0.00 | 0.00 | 0.00 | 99 | 1010.8 |
| 20260510115745 | 11 | 302 | 0.0 | 0.0 | 0.00 | 0.00 | 0.00 | 99 | 1010.6 |
| 20260510115243 | 11 | 302 | 0.0 | 0.0 | 0.00 | 0.00 | 0.00 | 99 | 1010.9 |
| 20260510114738 | 11 | 302 | 0.0 | 0.0 | 0.00 | 0.00 | 0.00 | 99 | 1010.7 |
| 20260510114236 | 12 | 302 | 0.0 | 0.0 | 0.00 | 0.00 | 0.00 | 99 | 1010.7 |
| 20260510113731 | 11 | 280 | 0.0 | 0.0 | 0.00 | 0.00 | 0.00 | 99 | 1010.5 |
| 20260510113228 | 11 | 277 | 0.0 | 0.0 | 0.00 | 0.00 | 0.00 | 99 | 1010.7 |
| 20260510112724 | 11 | 282 | 0.0 | 0.0 | 0.00 | 0.00 | 0.00 | 99 | 1010.5 |
| 20260510112221 | 11 | 282 | 0.0 | 0.0 | 0.00 | 0.00 | 0.00 | 99 | 1010.5 |
| 20260510111717 | 11 | 313 | 0.0 | 0.0 | 0.00 | 0.00 | 0.00 | 99 | 1010.2 |
| 20260510111215 | 11 | 271 | 0.0 | 0.0 | 0.00 | 0.00 | 0.00 | 99 | 1010.3 |
| 20260510110714 | 11 | 262 | 0.0 | 0.0 | 0.00 | 0.00 | 0.00 | 99 | 1010.1 |
| 20260510110212 | 11 | 279 | 0.0 | 1.6 | 0.00 | 0.00 | 0.00 | 99 | 1010.4 |
| 20260510105712 | 11 | 277 | 0.0 | 0.0 | 0.00 | 0.00 | 0.00 | 99 | 1010.1 |
| 20260510105206 | 11 | 277 | 0.0 | 0.0 | 0.00 | 0.00 | 0.00 | 99 | 1010.0 |
| 20260510104703 | 10 | 305 | 3.2 | 3.2 | 0.00 | 0.00 | 0.00 | 99 | 1010.2 |
| 20260510104200 | 10 | 302 | 0.0 | 0.0 | 0.00 | 0.00 | 0.00 | 99 | 1009.9 |
| 20260510103657 | 10 | 302 | 0.0 | 0.0 | 0.00 | 0.00 | 0.00 | 99 | 1009.8 |
| 20260510103154 | 10 | 291 | 0.0 | 0.0 | 0.00 | 0.00 | 0.00 | 99 | 1010.0 |
| 20260510102654 | 10 | 264 | 0.0 | 1.6 | 0.00 | 0.00 | 0.00 | 99 | 1010.0 |
| 20260510102150 | 10 | 283 | 0.0 | 1.6 | 0.00 | 0.00 | 0.00 | 99 | 1009.9 |
| 20260510101647 | 10 | 268 | 1.6 | 1.6 | 0.00 | 0.00 | 0.00 | 99 | 1009.8 |
| 20260510101146 | 10 | 288 | 0.0 | 0.0 | 0.00 | 0.00 | 0.00 | 99 | 1009.8 |
| 20260510100641 | 10 | 288 | 1.6 | 1.6 | 0.00 | 0.00 | 0.00 | 99 | 1009.7 |
| 20260510100139 | 10 | 288 | 0.0 | 0.0 | 0.00 | 0.00 | 0.00 | 99 | 1009.6 |
| 20260510095635 | 10 | 288 | 0.0 | 0.0 | 0.00 | 0.00 | 0.00 | 99 | 1009.6 |
| 20260510095131 | 10 | 288 | 0.0 | 0.0 | 0.00 | 0.00 | 0.00 | 99 | 1009.7 |
| 20260510094629 | 10 | 287 | 0.0 | 0.0 | 0.00 | 0.00 | 0.00 | 99 | 1009.7 |
| 20260510094126 | 10 | 288 | 0.0 | 0.0 | 0.00 | 0.00 | 0.00 | 99 | 1009.4 |
| 20260510093622 | 10 | 284 | 0.0 | 0.0 | 0.00 | 0.00 | 0.00 | 99 | 1009.4 |
| 20260510093119 | 10 | 290 | 3.2 | 3.2 | 0.00 | 0.00 | 0.00 | 99 | 1009.2 |
| 20260510092615 | 10 | 257 | 0.0 | 0.0 | 0.00 | 0.00 | 0.00 | 99 | 1009.5 |
| 20260510092115 | 10 | 257 | 1.6 | 1.6 | 0.00 | 0.00 | 0.00 | 99 | 1009.3 |
| 20260510091612 | 10 | 257 | 0.0 | 0.0 | 0.00 | 0.00 | 0.00 | 99 | 1009.4 |
| 20260510091108 | 10 | 261 | 0.0 | 0.0 | 0.00 | 0.00 | 0.00 | 99 | 1009.3 |
| 20260510090605 | 10 | 274 | 0.0 | 0.0 | 0.00 | 0.00 | 0.00 | 99 | 1009.5 |
| 20260510090101 | 10 | 279 | 1.6 | 1.6 | 0.00 | 0.00 | 0.00 | 99 | 1009.3 |
| 20260510085556 | 10 | 293 | 1.6 | 1.6 | 0.00 | 0.00 | 0.00 | 99 | 1009.5 |
| 20260510085052 | 10 | 297 | 0.0 | 0.0 | 0.00 | 0.00 | 0.00 | 99 | 1009.3 |
| 20260510084549 | 10 | 271 | 0.0 | 0.0 | 0.00 | 0.00 | 0.00 | 99 | 1009.4 |
| 20260510084045 | 10 | 271 | 0.0 | 0.0 | 0.00 | 0.00 | 0.00 | 99 | 1009.6 |
| 20260510083542 | 10 | 271 | 0.0 | 0.0 | 0.00 | 0.00 | 0.00 | 99 | 1009.7 |
| 20260510083038 | 10 | 271 | 0.0 | 0.0 | 0.00 | 0.00 | 0.00 | 99 | 1010.0 |
| 20260510082535 | 10 | 271 | 0.0 | 0.0 | 0.00 | 0.00 | 0.00 | 99 | 1009.7 |
| 20260510082031 | 10 | 304 | 0.0 | 0.0 | 0.00 | 0.00 | 0.00 | 99 | 1009.9 |
| 20260510081526 | 10 | 304 | 0.0 | 0.0 | 0.00 | 0.00 | 0.00 | 99 | 1009.9 |
| 20260510081022 | 10 | 304 | 0.0 | 0.0 | 0.00 | 0.00 | 0.00 | 99 | 1009.9 |
| 20260510080521 | 10 | 304 | 0.0 | 0.0 | 0.00 | 0.00 | 0.00 | 99 | 1010.1 |
| 20260510080018 | 10 | 304 | 0.0 | 0.0 | 0.00 | 0.00 | 0.00 | 99 | 1010.3 |
| 20260510075515 | 10 | 261 | 0.0 | 0.0 | 0.00 | 0.00 | 0.00 | 99 | 1010.2 |
| 20260510075012 | 10 | 260 | 1.6 | 1.6 | 0.00 | 0.00 | 0.00 | 99 | 1010.4 |
| 20260510074510 | 10 | 260 | 0.0 | 1.6 | 0.00 | 0.00 | 0.00 | 99 | 1010.4 |
| 20260510074005 | 10 | 260 | 0.0 | 0.0 | 0.00 | 0.00 | 0.00 | 99 | 1010.3 |
| 20260510073501 | 10 | 261 | 0.0 | 0.0 | 0.00 | 0.00 | 0.00 | 99 | 1010.4 |
| 20260510072958 | 10 | 260 | 1.6 | 1.6 | 0.00 | 0.00 | 0.00 | 99 | 1010.5 |
| 20260510072455 | 10 | 260 | 0.0 | 1.6 | 0.00 | 0.00 | 0.00 | 99 | 1010.5 |
| 20260510071950 | 9 | 260 | 0.0 | 0.0 | 0.00 | 0.00 | 0.00 | 99 | 1010.7 |
| 20260510071447 | 9 | 259 | 0.0 | 1.6 | 0.00 | 0.00 | 0.00 | 99 | 1010.5 |
| 20260510070945 | 10 | 259 | 1.6 | 1.6 | 0.00 | 0.00 | 0.00 | 99 | 1010.7 |
| 20260510070442 | 9 | 263 | 0.0 | 0.0 | 0.00 | 0.00 | 0.00 | 99 | 1010.5 |
| 20260510065938 | 9 | 262 | 0.0 | 0.0 | 0.00 | 0.00 | 0.00 | 99 | 1010.1 |
| 20260510065435 | 9 | 262 | 0.0 | 0.0 | 0.00 | 0.00 | 0.00 | 99 | 1010.0 |
| 20260510064931 | 9 | 263 | 0.0 | 0.0 | 0.00 | 0.00 | 0.00 | 99 | 1010.0 |
| 20260510064428 | 9 | 263 | 0.0 | 0.0 | 0.00 | 0.00 | 0.00 | 99 | 1009.9 |
| 20260510063925 | 9 | 261 | 0.0 | 0.0 | 0.00 | 0.00 | 0.00 | 99 | 1009.8 |
| 20260510063421 | 9 | 265 | 0.0 | 0.0 | 0.00 | 0.00 | 0.00 | 99 | 1009.8 |
| 20260510062919 | 9 | 266 | 0.0 | 0.0 | 0.00 | 0.00 | 0.00 | 99 | 1009.9 |
| 20260510062413 | 9 | 266 | 1.6 | 1.6 | 0.00 | 0.00 | 0.00 | 99 | 1009.8 |
| 20260510061904 | 9 | 266 | 0.0 | 0.0 | 0.00 | 0.00 | 0.00 | 99 | 1010.0 |
| 20260510061401 | 9 | 267 | 0.0 | 0.0 | 0.00 | 0.00 | 0.00 | 99 | 1010.2 |
| 20260510060856 | 8 | 267 | 0.0 | 0.0 | 0.00 | 0.00 | 0.00 | 99 | 1010.3 |
| 20260510060353 | 8 | 266 | 1.6 | 1.6 | 0.00 | 0.00 | 0.00 | 99 | 1010.2 |
| 20260510055849 | 8 | 267 | 0.0 | 0.0 | 0.00 | 0.00 | 0.00 | 99 | 1010.2 |
| 20260510055349 | 8 | 255 | 1.6 | 1.6 | 0.00 | 0.00 | 0.00 | 99 | 1010.2 |
| 20260510054843 | 8 | 256 | 1.6 | 1.6 | 0.00 | 0.00 | 0.00 | 99 | 1010.1 |
| 20260510054339 | 8 | 257 | 1.6 | 1.6 | 0.00 | 0.00 | 0.00 | 99 | 1010.0 |
| 20260510053833 | 9 | 270 | 0.0 | 1.6 | 0.00 | 0.00 | 0.00 | 99 | 1009.9 |
| 20260510053329 | 9 | 270 | 0.0 | 1.6 | 0.00 | 0.00 | 0.00 | 99 | 1009.5 |
| 20260510052826 | 9 | 257 | 0.0 | 0.0 | 0.00 | 0.00 | 0.00 | 99 | 1009.5 |
| 20260510052322 | 9 | 256 | 0.0 | 0.0 | 0.00 | 0.00 | 0.00 | 99 | 1009.4 |
| 20260510051818 | 9 | 246 | 1.6 | 1.6 | 0.00 | 0.00 | 0.00 | 99 | 1009.5 |
| 20260510051315 | 8 | 266 | 0.0 | 0.0 | 0.00 | 0.00 | 0.00 | 99 | 1009.4 |
| 20260510050811 | 8 | 265 | 0.0 | 0.0 | 0.00 | 0.00 | 0.00 | 99 | 1009.6 |
| 20260510050303 | 8 | 269 | 0.0 | 0.0 | 0.00 | 0.00 | 0.00 | 99 | 1009.6 |
| 20260510045800 | 9 | 268 | 0.0 | 1.6 | 0.00 | 0.00 | 0.00 | 99 | 1009.5 |
| 20260510045256 | 10 | 269 | 1.6 | 1.6 | 0.00 | 0.00 | 0.00 | 99 | 1009.7 |
| 20260510044754 | 10 | 281 | 0.0 | 0.0 | 0.00 | 0.00 | 0.00 | 99 | 1009.6 |
| 20260510044250 | 10 | 266 | 0.0 | 1.6 | 0.00 | 0.00 | 0.00 | 99 | 1009.7 |
| 20260510043746 | 9 | 266 | 1.6 | 1.6 | 0.00 | 0.00 | 0.00 | 99 | 1009.7 |
| 20260510043242 | 9 | 260 | 1.6 | 1.6 | 0.00 | 0.00 | 0.00 | 99 | 1009.6 |
| 20260510042740 | 9 | 261 | 1.6 | 1.6 | 0.00 | 0.00 | 0.00 | 99 | 1009.6 |
| 20260510042230 | 9 | 252 | 1.6 | 1.6 | 0.00 | 0.00 | 0.00 | 99 | 1009.6 |
| 20260510041727 | 9 | 255 | 0.0 | 0.0 | 0.00 | 0.00 | 0.00 | 99 | 1009.5 |
| 20260510041225 | 9 | 259 | 0.0 | 0.0 | 0.00 | 0.00 | 0.00 | 99 | 1009.5 |
| 20260510040721 | 9 | 251 | 1.6 | 1.6 | 0.00 | 0.00 | 0.00 | 99 | 1009.7 |
| 20260510040218 | 9 | 266 | 1.6 | 1.6 | 0.00 | 0.00 | 0.00 | 99 | 1009.5 |
| 20260510035713 | 10 | 269 | 0.0 | 0.0 | 0.00 | 0.91 | 0.91 | 99 | 1009.5 |
| 20260510035210 | 10 | 269 | 0.0 | 0.0 | 0.00 | 0.91 | 0.91 | 99 | 1009.6 |
| 20260510034705 | 10 | 268 | 0.0 | 0.0 | 0.00 | 0.91 | 0.91 | 99 | 1009.4 |
| 20260510034203 | 10 | 269 | 0.0 | 0.0 | 0.00 | 0.91 | 0.91 | 99 | 1009.3 |
| 20260510033658 | 10 | 268 | 0.0 | 0.0 | 0.00 | 0.91 | 0.91 | 99 | 1009.2 |
| 20260510033157 | 10 | 278 | 0.0 | 1.6 | 0.00 | 0.91 | 0.91 | 99 | 1009.4 |
| 20260510032652 | 10 | 278 | 0.0 | 0.0 | 0.00 | 0.91 | 0.91 | 99 | 1009.4 |
| 20260510032148 | 10 | 264 | 0.0 | 1.6 | 0.00 | 0.91 | 0.91 | 99 | 1009.4 |
| 20260510031643 | 10 | 276 | 1.6 | 1.6 | 0.00 | 0.91 | 0.91 | 99 | 1009.4 |
| 20260510031140 | 10 | 275 | 0.0 | 1.6 | 0.00 | 0.91 | 0.91 | 99 | 1009.4 |
| 20260510030634 | 10 | 266 | 0.0 | 0.0 | 0.00 | 0.91 | 0.91 | 99 | 1009.5 |
| 20260510030132 | 9 | 261 | 0.0 | 0.0 | 0.00 | 0.91 | 0.91 | 99 | 1009.3 |
| 20260510025629 | 10 | 257 | 0.0 | 0.0 | 0.00 | 0.91 | 0.91 | 99 | 1009.7 |
| 20260510025126 | 10 | 261 | 1.6 | 1.6 | 0.00 | 0.91 | 0.91 | 99 | 1009.5 |
| 20260510024623 | 10 | 263 | 1.6 | 1.6 | 0.00 | 0.91 | 0.91 | 99 | 1009.6 |
| 20260510024119 | 9 | 286 | 0.0 | 0.0 | 0.00 | 0.91 | 0.91 | 99 | 1009.6 |
| 20260510023615 | 9 | 261 | 0.0 | 0.0 | 0.00 | 0.91 | 0.91 | 99 | 1009.5 |
| 20260510023113 | 9 | 255 | 1.6 | 3.2 | 0.00 | 0.91 | 0.91 | 99 | 1009.4 |
| 20260510022613 | 9 | 261 | 0.0 | 0.0 | 0.00 | 0.91 | 0.91 | 99 | 1009.5 |
| 20260510022108 | 9 | 261 | 0.0 | 0.0 | 0.00 | 0.91 | 0.91 | 99 | 1009.4 |
| 20260510021604 | 10 | 261 | 0.0 | 0.0 | 0.00 | 0.91 | 0.91 | 99 | 1009.4 |
| 20260510021102 | 10 | 261 | 0.0 | 0.0 | 0.00 | 0.91 | 0.91 | 99 | 1009.3 |
| 20260510020555 | 10 | 261 | 0.0 | 0.0 | 0.00 | 0.91 | 0.91 | 99 | 1009.6 |
| 20260510020051 | 10 | 264 | 0.0 | 1.6 | 0.00 | 0.91 | 0.91 | 99 | 1009.6 |
| 20260510015547 | 10 | 263 | 0.0 | 0.0 | 0.00 | 0.91 | 0.91 | 98 | 1009.4 |
| 20260510015044 | 10 | 267 | 0.0 | 0.0 | 0.00 | 0.91 | 0.91 | 98 | 1009.3 |
| 20260510014540 | 10 | 267 | 0.0 | 0.0 | 0.00 | 0.91 | 0.91 | 98 | 1009.3 |
| 20260510014037 | 10 | 267 | 0.0 | 0.0 | 0.00 | 0.91 | 0.91 | 98 | 1009.3 |
| 20260510013532 | 10 | 267 | 0.0 | 0.0 | 0.00 | 0.91 | 0.91 | 98 | 1009.3 |
| 20260510013028 | 10 | 267 | 0.0 | 0.0 | 0.00 | 0.91 | 0.91 | 97 | 1009.2 |
| 20260510012522 | 10 | 271 | 0.0 | 0.0 | 0.00 | 0.91 | 0.91 | 97 | 1009.3 |
| 20260510012019 | 11 | 282 | 0.0 | 0.0 | 0.00 | 0.91 | 0.91 | 96 | 1009.1 |
| 20260510011518 | 11 | 271 | 0.0 | 0.0 | 0.00 | 0.91 | 0.91 | 96 | 1009.1 |
| 20260510011014 | 11 | 280 | 0.0 | 0.0 | 0.00 | 0.91 | 0.91 | 95 | 1009.1 |
| 20260510010511 | 11 | 276 | 0.0 | 0.0 | 0.00 | 0.91 | 0.91 | 95 | 1008.8 |
| 20260510010008 | 11 | 283 | 1.6 | 1.6 | 0.00 | 0.91 | 0.91 | 95 | 1008.9 |
| 20260510005504 | 11 | 302 | 0.0 | 0.0 | 0.00 | 0.91 | 0.91 | 95 | 1008.7 |
| 20260510005002 | 11 | 303 | 1.6 | 1.6 | 0.00 | 0.91 | 0.91 | 95 | 1008.6 |
| 20260510004459 | 11 | 288 | 1.6 | 1.6 | 0.00 | 0.91 | 0.91 | 94 | 1008.7 |
| 20260510003957 | 12 | 275 | 1.6 | 3.2 | 0.00 | 0.91 | 0.91 | 94 | 1008.8 |
| 20260510003453 | 12 | 272 | 0.0 | 1.6 | 0.00 | 0.91 | 0.91 | 95 | 1008.7 |
| 20260510002948 | 12 | 265 | 3.2 | 3.2 | 0.00 | 0.91 | 0.91 | 95 | 1008.5 |
| 20260510002444 | 12 | 267 | 1.6 | 1.6 | 0.00 | 0.91 | 0.91 | 95 | 1008.4 |
| 20260510001941 | 12 | 224 | 3.2 | 3.2 | 0.00 | 0.91 | 0.91 | 94 | 1008.2 |
| 20260510001438 | 12 | 302 | 0.0 | 1.6 | 0.00 | 0.91 | 0.91 | 94 | 1008.3 |
| 20260510000936 | 12 | 64 | 6.4 | 6.4 | 0.00 | 0.91 | 0.91 | 94 | 1008.3 |
| 20260510000427 | 12 | 218 | 3.2 | 4.8 | 0.00 | 0.91 | 0.91 | 94 | 1008.5 |
| 20260509235923 | 12 | 183 | 3.2 | 4.8 | 0.00 | 0.91 | 0.91 | 94 | 1008.4 |
| 20260509235420 | 12 | 304 | 0.0 | 1.6 | 0.00 | 0.91 | 0.91 | 94 | 1008.2 |
| 20260509234916 | 12 | 239 | 1.6 | 3.2 | 0.00 | 0.91 | 0.91 | 93 | 1008.4 |
| 20260509234414 | 12 | 240 | 3.2 | 3.2 | 0.00 | 0.91 | 0.91 | 93 | 1008.3 |
| 20260509233912 | 12 | 306 | 3.2 | 4.8 | 0.00 | 0.91 | 0.91 | 93 | 1008.2 |
| 20260509233409 | 12 | 196 | 1.6 | 3.2 | 0.00 | 0.91 | 0.91 | 93 | 1008.1 |
| 20260509232904 | 12 | 341 | 4.8 | 6.4 | 0.00 | 0.91 | 0.91 | 93 | 1008.1 |
| 20260509232402 | 12 | 276 | 3.2 | 3.2 | 0.00 | 0.91 | 0.91 | 93 | 1007.8 |
| 20260509231857 | 12 | 285 | 6.4 | 9.7 | 0.00 | 0.91 | 0.91 | 93 | 1008.0 |
| 20260509231355 | 12 | 273 | 0.0 | 1.6 | 0.00 | 0.91 | 0.91 | 94 | 1008.4 |
| 20260509230853 | 12 | 285 | 1.6 | 1.6 | 0.00 | 0.91 | 0.91 | 94 | 1008.4 |
| 20260509230349 | 12 | 86 | 3.2 | 3.2 | 0.00 | 0.91 | 0.91 | 94 | 1008.5 |
| 20260509225845 | 12 | 286 | 1.6 | 3.2 | 0.00 | 0.91 | 0.91 | 95 | 1008.2 |
| 20260509225342 | 12 | 214 | 3.2 | 3.2 | 0.00 | 0.91 | 0.91 | 94 | 1008.6 |
| 20260509224837 | 12 | 276 | 1.6 | 1.6 | 0.00 | 0.91 | 0.91 | 94 | 1008.4 |
| 20260509224333 | 12 | 293 | 4.8 | 4.8 | 0.00 | 0.91 | 0.91 | 94 | 1008.2 |
| 20260509223831 | 12 | 249 | 1.6 | 3.2 | 0.00 | 0.91 | 0.91 | 94 | 1008.1 |
| 20260509223327 | 12 | 264 | 3.2 | 3.2 | 0.00 | 0.91 | 0.91 | 94 | 1008.3 |
| 20260509222825 | 12 | 274 | 1.6 | 3.2 | 0.00 | 0.91 | 0.91 | 95 | 1008.4 |
| 20260509222320 | 12 | 272 | 0.0 | 1.6 | 0.00 | 0.91 | 0.91 | 95 | 1008.4 |
| 20260509221815 | 12 | 298 | 0.0 | 0.0 | 0.00 | 0.91 | 0.91 | 96 | 1008.4 |
| 20260509221313 | 12 | 279 | 0.0 | 0.0 | 0.00 | 0.91 | 0.91 | 96 | 1008.3 |
| 20260509220808 | 12 | 271 | 0.0 | 0.0 | 0.00 | 0.91 | 0.91 | 96 | 1008.4 |
| 20260509220305 | 12 | 269 | 0.0 | 0.0 | 0.00 | 0.91 | 0.91 | 97 | 1008.3 |
| 20260509215800 | 12 | 283 | 0.0 | 0.0 | 0.00 | 0.91 | 0.91 | 97 | 1008.4 |
| 20260509215257 | 12 | 242 | 0.0 | 0.0 | 0.00 | 0.91 | 0.91 | 97 | 1008.5 |
| 20260509214754 | 12 | 279 | 0.0 | 1.6 | 0.00 | 0.91 | 0.91 | 98 | 1008.8 |
| 20260509214251 | 12 | 270 | 1.6 | 1.6 | 0.00 | 0.91 | 0.91 | 98 | 1008.7 |
| 20260509213748 | 12 | 276 | 0.0 | 0.0 | 0.00 | 0.91 | 0.91 | 98 | 1008.9 |
| 20260509213244 | 12 | 283 | 0.0 | 0.0 | 0.00 | 0.91 | 0.91 | 98 | 1008.9 |
| 20260509212741 | 12 | 283 | 1.6 | 1.6 | 0.18 | 0.91 | 0.91 | 98 | 1008.9 |
| 20260509212239 | 12 | 284 | 0.0 | 0.0 | 0.18 | 0.91 | 0.91 | 98 | 1008.9 |
| 20260509211734 | 12 | 279 | 0.0 | 0.0 | 0.00 | 0.89 | 0.89 | 98 | 1008.8 |
| 20260509211231 | 12 | 279 | 0.0 | 0.0 | 0.00 | 0.89 | 0.89 | 98 | 1008.9 |
| 20260509210727 | 12 | 279 | 0.0 | 0.0 | 0.00 | 0.89 | 0.89 | 98 | 1008.8 |
| 20260509210225 | 12 | 278 | 0.0 | 1.6 | 0.13 | 0.89 | 0.89 | 98 | 1008.9 |
| 20260509205725 | 12 | 281 | 0.0 | 0.0 | 0.13 | 0.89 | 0.89 | 98 | 1008.8 |
| 20260509205224 | 12 | 272 | 0.0 | 0.0 | 0.00 | 0.86 | 0.86 | 97 | 1009.0 |
| 20260509204721 | 12 | 283 | 0.0 | 0.0 | 0.30 | 0.86 | 0.86 | 97 | 1009.1 |
| 20260509204217 | 12 | 280 | 0.0 | 0.0 | 0.48 | 0.86 | 0.86 | 97 | 1009.1 |
| 20260509203713 | 12 | 293 | 0.0 | 0.0 | 0.30 | 0.81 | 0.81 | 97 | 1009.1 |
| 20260509203212 | 12 | 292 | 0.0 | 0.0 | 0.13 | 0.79 | 0.79 | 97 | 1009.1 |
| 20260509202706 | 12 | 292 | 0.0 | 0.0 | 0.18 | 0.76 | 0.76 | 97 | 1009.2 |
| 20260509202201 | 12 | 293 | 0.0 | 0.0 | 0.18 | 0.76 | 0.76 | 97 | 1009.2 |
| 20260509201657 | 12 | 292 | 0.0 | 0.0 | 0.13 | 0.74 | 0.74 | 97 | 1009.4 |
| 20260509201154 | 12 | 307 | 0.0 | 0.0 | 0.13 | 0.74 | 0.74 | 97 | 1009.2 |
| 20260509200650 | 12 | 299 | 0.0 | 0.0 | 0.18 | 0.71 | 0.71 | 97 | 1009.5 |
| 20260509200146 | 12 | 289 | 0.0 | 0.0 | 0.30 | 0.71 | 0.71 | 97 | 1009.4 |
| 20260509195642 | 12 | 285 | 0.0 | 0.0 | 0.30 | 0.69 | 0.69 | 97 | 1009.6 |
| 20260509195137 | 12 | 284 | 1.6 | 1.6 | 0.30 | 0.66 | 0.66 | 97 | 1009.6 |
| 20260509194636 | 13 | 296 | 0.0 | 1.6 | 0.30 | 0.64 | 0.64 | 97 | 1009.5 |
| 20260509194134 | 13 | 279 | 0.0 | 1.6 | 0.36 | 0.61 | 0.61 | 97 | 1009.9 |
| 20260509193630 | 13 | 271 | 0.0 | 0.0 | 0.18 | 0.58 | 0.58 | 97 | 1009.8 |
| 20260509193125 | 13 | 280 | 0.0 | 0.0 | 0.30 | 0.58 | 0.58 | 97 | 1009.9 |